ASA1461 LEMD-LFPG
Flight info
| Callsign | ASA1461 |
|---|---|
| Flight time | 1h 25m |
| Altitude | 34000 |
| Route | RBO N867 DGO DCT ABRIX DCT CNA DCT POI/N0445F300 DCT PEPAX UT182 KEPER |
| Aircraft | B738/M-SDE2E3FGHIRWXY/LB1 |
Departure
| Time | 2026-05-07 04:22 |
|---|---|
| Airport | Adolfo Suárez Madrid–Barajas Airport (LEMD) |
Arrival
| Time | 2026-05-07 05:48 |
|---|---|
| Airport | Charles de Gaulle International Airport (LFPG) |
| Time | Latitude | Longitude | Altitude | Speed | Heading |
|---|---|---|---|---|---|
| 2026-05-07 03:46 | 40.49423 | -3.58738 | 2024 ft | 0 kts | 270° |
| 2026-05-07 04:14 | 40.49422 | -3.58720 | 2023 ft | 2 kts | 270° |
| 2026-05-07 04:14 | 40.49422 | -3.58699 | 2023 ft | 2 kts | 270° |
| 2026-05-07 04:15 | 40.49422 | -3.58679 | 2023 ft | 2 kts | 270° |
| 2026-05-07 04:15 | 40.49422 | -3.58666 | 2022 ft | 1 kts | 270° |
| 2026-05-07 04:15 | 40.49425 | -3.58650 | 2022 ft | 2 kts | 221° |
| 2026-05-07 04:15 | 40.49435 | -3.58643 | 2022 ft | 0 kts | 183° |
| 2026-05-07 04:16 | 40.49442 | -3.58644 | 2022 ft | 1 kts | 178° |
| 2026-05-07 04:16 | 40.49443 | -3.58644 | 2022 ft | 0 kts | 178° |
| 2026-05-07 04:17 | 40.49440 | -3.58644 | 2022 ft | 1 kts | 178° |
| 2026-05-07 04:17 | 40.49430 | -3.58644 | 2022 ft | 0 kts | 178° |
| 2026-05-07 04:18 | 40.49412 | -3.58643 | 2022 ft | 1 kts | 179° |
| 2026-05-07 04:18 | 40.49410 | -3.58643 | 2022 ft | 1 kts | 178° |
| 2026-05-07 04:18 | 40.49365 | -3.58644 | 2021 ft | 10 kts | 181° |
| 2026-05-07 04:19 | 40.49269 | -3.58634 | 2020 ft | 16 kts | 152° |
| 2026-05-07 04:19 | 40.49242 | -3.58478 | 2017 ft | 20 kts | 90° |
| 2026-05-07 04:19 | 40.49244 | -3.58275 | 2013 ft | 23 kts | 89° |
| 2026-05-07 04:19 | 40.49247 | -3.58053 | 2005 ft | 21 kts | 84° |
| 2026-05-07 04:20 | 40.49245 | -3.57880 | 2002 ft | 18 kts | 90° |
| 2026-05-07 04:20 | 40.49245 | -3.57703 | 1996 ft | 19 kts | 89° |
| 2026-05-07 04:20 | 40.49283 | -3.57540 | 1990 ft | 21 kts | 50° |
| 2026-05-07 04:21 | 40.49500 | -3.57464 | 1986 ft | 0 kts | 359° |
| 2026-05-07 04:21 | 40.49538 | -3.57464 | 1986 ft | 31 kts | 359° |
| 2026-05-07 04:22 | 40.50114 | -3.57467 | 1984 ft | 130 kts | 359° |
| 2026-05-07 04:22 | 40.51214 | -3.57461 | 2458 ft | 170 kts | 359° |
| 2026-05-07 04:22 | 40.52386 | -3.57449 | 3501 ft | 181 kts | 359° |
| 2026-05-07 04:22 | 40.53643 | -3.57450 | 4380 ft | 189 kts | 356° |
| 2026-05-07 04:23 | 40.55019 | -3.57404 | 4934 ft | 214 kts | 9° |
| 2026-05-07 04:23 | 40.56523 | -3.56864 | 5483 ft | 240 kts | 15° |
| 2026-05-07 04:23 | 40.58172 | -3.56249 | 6323 ft | 257 kts | 14° |
| 2026-05-07 04:23 | 40.59936 | -3.55611 | 7211 ft | 272 kts | 14° |
| 2026-05-07 04:24 | 40.61784 | -3.54940 | 8255 ft | 280 kts | 14° |
| 2026-05-07 04:24 | 40.63645 | -3.54308 | 9267 ft | 287 kts | 8° |
| 2026-05-07 04:24 | 40.65651 | -3.54063 | 10290 ft | 293 kts | 1° |
| 2026-05-07 04:24 | 40.67748 | -3.53849 | 10763 ft | 319 kts | 8° |
| 2026-05-07 04:25 | 40.69891 | -3.52872 | 11226 ft | 344 kts | 30° |
| 2026-05-07 04:25 | 40.71739 | -3.50829 | 12114 ft | 352 kts | 49° |
| 2026-05-07 04:25 | 40.73189 | -3.48194 | 12990 ft | 360 kts | 56° |
| 2026-05-07 04:25 | 40.74588 | -3.45453 | 13866 ft | 366 kts | 55° |
| 2026-05-07 04:26 | 40.76021 | -3.42718 | 14734 ft | 371 kts | 55° |
| 2026-05-07 04:26 | 40.77500 | -3.39891 | 15588 ft | 376 kts | 55° |
| 2026-05-07 04:26 | 40.78976 | -3.37050 | 16406 ft | 381 kts | 55° |
| 2026-05-07 04:26 | 40.80476 | -3.34156 | 17199 ft | 386 kts | 56° |
| 2026-05-07 04:27 | 40.82005 | -3.31203 | 17970 ft | 390 kts | 56° |
| 2026-05-07 04:27 | 40.83539 | -3.28258 | 18704 ft | 395 kts | 54° |
| 2026-05-07 04:27 | 40.85413 | -3.25622 | 19363 ft | 400 kts | 37° |
| 2026-05-07 04:27 | 40.87868 | -3.23997 | 20081 ft | 402 kts | 14° |
| 2026-05-07 04:28 | 40.90622 | -3.23344 | 20797 ft | 404 kts | 7° |
| 2026-05-07 04:28 | 40.93424 | -3.22824 | 21363 ft | 410 kts | 8° |
| 2026-05-07 04:28 | 40.96210 | -3.22220 | 21998 ft | 414 kts | 8° |
| 2026-05-07 04:28 | 40.99061 | -3.21578 | 22540 ft | 420 kts | 8° |
| 2026-05-07 04:29 | 41.01973 | -3.20932 | 23096 ft | 424 kts | 8° |
| 2026-05-07 04:29 | 41.04866 | -3.20291 | 23638 ft | 429 kts | 7° |
| 2026-05-07 04:29 | 41.07807 | -3.19635 | 24177 ft | 433 kts | 7° |
| 2026-05-07 04:29 | 41.10757 | -3.18975 | 24723 ft | 436 kts | 6° |
| 2026-05-07 04:30 | 41.13775 | -3.18298 | 25258 ft | 439 kts | 6° |
| 2026-05-07 04:30 | 41.16769 | -3.17626 | 25735 ft | 442 kts | 6° |
| 2026-05-07 04:30 | 41.19792 | -3.16946 | 26207 ft | 446 kts | 6° |
| 2026-05-07 04:30 | 41.22884 | -3.16249 | 26668 ft | 449 kts | 6° |
| 2026-05-07 04:31 | 41.25950 | -3.15558 | 27112 ft | 452 kts | 6° |
| 2026-05-07 04:31 | 41.29043 | -3.14859 | 27538 ft | 455 kts | 6° |
| 2026-05-07 04:31 | 41.32156 | -3.14155 | 27956 ft | 458 kts | 6° |
| 2026-05-07 04:31 | 41.35320 | -3.13439 | 28364 ft | 461 kts | 5° |
| 2026-05-07 04:32 | 41.38476 | -3.12724 | 28752 ft | 464 kts | 5° |
| 2026-05-07 04:32 | 41.41661 | -3.12001 | 29131 ft | 467 kts | 5° |
| 2026-05-07 04:32 | 41.44831 | -3.11281 | 29497 ft | 470 kts | 5° |
| 2026-05-07 04:32 | 41.48042 | -3.10551 | 29856 ft | 473 kts | 5° |
| 2026-05-07 04:33 | 41.51285 | -3.09813 | 30245 ft | 474 kts | 5° |
| 2026-05-07 04:33 | 41.54534 | -3.09073 | 30828 ft | 471 kts | 5° |
| 2026-05-07 04:33 | 41.57736 | -3.08346 | 31302 ft | 470 kts | 5° |
| 2026-05-07 04:33 | 41.60938 | -3.07620 | 31760 ft | 469 kts | 5° |
| 2026-05-07 04:34 | 41.64142 | -3.06892 | 32230 ft | 468 kts | 5° |
| 2026-05-07 04:34 | 41.67349 | -3.06163 | 32677 ft | 468 kts | 5° |
| 2026-05-07 04:34 | 41.70535 | -3.05437 | 33107 ft | 467 kts | 5° |
| 2026-05-07 04:34 | 41.73722 | -3.04711 | 33538 ft | 467 kts | 5° |
| 2026-05-07 04:35 | 41.76906 | -3.03981 | 33918 ft | 466 kts | 5° |
| 2026-05-07 04:35 | 41.80094 | -3.03247 | 33963 ft | 470 kts | 5° |
| 2026-05-07 04:35 | 41.86525 | -3.01764 | 33965 ft | 469 kts | 5° |
| 2026-05-07 04:36 | 41.92886 | -3.00293 | 33966 ft | 466 kts | 5° |
| 2026-05-07 04:36 | 41.99258 | -2.98820 | 33966 ft | 467 kts | 5° |
| 2026-05-07 04:37 | 42.05613 | -2.97346 | 33966 ft | 467 kts | 5° |
| 2026-05-07 04:37 | 42.11987 | -2.95865 | 33969 ft | 467 kts | 5° |
| 2026-05-07 04:38 | 42.18393 | -2.94374 | 33977 ft | 467 kts | 5° |
| 2026-05-07 04:38 | 42.24773 | -2.92886 | 33987 ft | 467 kts | 5° |
| 2026-05-07 04:39 | 42.31149 | -2.91396 | 33989 ft | 467 kts | 5° |
| 2026-05-07 04:39 | 42.37542 | -2.89898 | 33990 ft | 468 kts | 5° |
| 2026-05-07 04:40 | 42.43895 | -2.88072 | 33992 ft | 472 kts | 12° |
| 2026-05-07 04:40 | 42.49956 | -2.84529 | 33994 ft | 479 kts | 26° |
| 2026-05-07 04:41 | 42.55736 | -2.80102 | 33993 ft | 479 kts | 25° |
| 2026-05-07 04:41 | 42.61528 | -2.75794 | 33993 ft | 479 kts | 25° |
| 2026-05-07 04:42 | 42.67322 | -2.71424 | 33993 ft | 479 kts | 25° |
| 2026-05-07 04:42 | 42.73123 | -2.67030 | 33993 ft | 479 kts | 25° |
| 2026-05-07 04:43 | 42.78931 | -2.62616 | 33993 ft | 479 kts | 25° |
| 2026-05-07 04:43 | 42.84715 | -2.58208 | 33993 ft | 479 kts | 25° |
| 2026-05-07 04:44 | 42.90500 | -2.53787 | 33992 ft | 479 kts | 25° |
| 2026-05-07 04:44 | 42.96328 | -2.49325 | 33993 ft | 485 kts | 23° |
| 2026-05-07 04:45 | 43.02242 | -2.44786 | 33992 ft | 489 kts | 22° |
| 2026-05-07 04:45 | 43.08141 | -2.40243 | 33993 ft | 488 kts | 21° |
| 2026-05-07 04:46 | 43.14011 | -2.35715 | 33997 ft | 486 kts | 21° |
| 2026-05-07 04:46 | 43.19899 | -2.31166 | 34002 ft | 488 kts | 22° |
| 2026-05-07 04:47 | 43.25777 | -2.26612 | 34011 ft | 490 kts | 22° |
| 2026-05-07 04:47 | 43.31684 | -2.22025 | 34017 ft | 488 kts | 22° |
| 2026-05-07 04:48 | 43.37559 | -2.17454 | 34020 ft | 489 kts | 22° |
| 2026-05-07 04:48 | 43.43453 | -2.12859 | 34020 ft | 489 kts | 22° |
| 2026-05-07 04:49 | 43.49374 | -2.08229 | 34020 ft | 489 kts | 22° |
| 2026-05-07 04:49 | 43.55254 | -2.03622 | 34020 ft | 488 kts | 22° |
| 2026-05-07 04:50 | 43.61117 | -1.99019 | 34020 ft | 489 kts | 22° |
| 2026-05-07 04:50 | 43.67006 | -1.94382 | 34020 ft | 488 kts | 22° |
| 2026-05-07 04:51 | 43.72873 | -1.89752 | 34020 ft | 488 kts | 22° |
| 2026-05-07 04:51 | 43.78731 | -1.85119 | 34019 ft | 487 kts | 22° |
| 2026-05-07 04:52 | 43.84630 | -1.80441 | 34020 ft | 488 kts | 22° |
| 2026-05-07 04:52 | 43.90481 | -1.75790 | 34020 ft | 488 kts | 22° |
| 2026-05-07 04:53 | 43.96341 | -1.71123 | 34019 ft | 487 kts | 22° |
| 2026-05-07 04:53 | 44.02213 | -1.66435 | 34017 ft | 488 kts | 22° |
| 2026-05-07 04:54 | 44.08044 | -1.61767 | 34004 ft | 487 kts | 22° |
| 2026-05-07 04:54 | 44.13887 | -1.57082 | 33990 ft | 488 kts | 22° |
| 2026-05-07 04:55 | 44.19746 | -1.52372 | 33993 ft | 487 kts | 22° |
| 2026-05-07 04:55 | 44.25626 | -1.47634 | 33992 ft | 487 kts | 22° |
| 2026-05-07 04:56 | 44.31448 | -1.42933 | 33993 ft | 487 kts | 22° |
| 2026-05-07 04:56 | 44.37297 | -1.38197 | 33993 ft | 487 kts | 22° |
| 2026-05-07 04:57 | 44.43153 | -1.33447 | 33993 ft | 488 kts | 23° |
| 2026-05-07 04:57 | 44.48985 | -1.28704 | 33993 ft | 489 kts | 23° |
| 2026-05-07 04:58 | 44.54858 | -1.23914 | 33993 ft | 488 kts | 23° |
| 2026-05-07 04:58 | 44.60685 | -1.19153 | 33993 ft | 488 kts | 23° |
| 2026-05-07 04:59 | 44.66504 | -1.14385 | 33993 ft | 486 kts | 23° |
| 2026-05-07 04:59 | 44.72357 | -1.09581 | 33994 ft | 486 kts | 23° |
| 2026-05-07 05:00 | 44.78138 | -1.04825 | 33996 ft | 485 kts | 23° |
| 2026-05-07 05:00 | 44.83949 | -1.00032 | 33998 ft | 484 kts | 23° |
| 2026-05-07 05:01 | 44.89746 | -0.95235 | 34000 ft | 484 kts | 23° |
| 2026-05-07 05:01 | 44.95505 | -0.90442 | 33999 ft | 483 kts | 23° |
| 2026-05-07 05:02 | 45.01256 | -0.85650 | 33999 ft | 482 kts | 24° |
| 2026-05-07 05:02 | 45.07030 | -0.80852 | 33999 ft | 483 kts | 24° |
| 2026-05-07 05:03 | 45.12819 | -0.76038 | 33999 ft | 483 kts | 24° |
| 2026-05-07 05:03 | 45.18588 | -0.71218 | 34000 ft | 483 kts | 24° |
| 2026-05-07 05:04 | 45.24334 | -0.66404 | 34000 ft | 483 kts | 24° |
| 2026-05-07 05:04 | 45.30114 | -0.61547 | 34000 ft | 483 kts | 24° |
| 2026-05-07 05:05 | 45.35870 | -0.56698 | 34000 ft | 483 kts | 24° |
| 2026-05-07 05:05 | 45.41633 | -0.51832 | 33999 ft | 482 kts | 24° |
| 2026-05-07 05:06 | 45.47384 | -0.46965 | 34000 ft | 483 kts | 24° |
| 2026-05-07 05:06 | 45.53127 | -0.42090 | 33999 ft | 483 kts | 24° |
| 2026-05-07 05:07 | 45.58905 | -0.37175 | 33999 ft | 483 kts | 24° |
| 2026-05-07 05:07 | 45.64639 | -0.32287 | 34000 ft | 483 kts | 25° |
| 2026-05-07 05:08 | 45.70589 | -0.28056 | 34000 ft | 477 kts | 17° |
| 2026-05-07 05:08 | 45.76624 | -0.24222 | 34000 ft | 478 kts | 18° |
| 2026-05-07 05:09 | 45.82680 | -0.20252 | 33999 ft | 478 kts | 18° |
| 2026-05-07 05:09 | 45.88675 | -0.16332 | 33998 ft | 478 kts | 18° |
| 2026-05-07 05:10 | 45.94688 | -0.12386 | 33996 ft | 478 kts | 18° |
| 2026-05-07 05:10 | 46.00725 | -0.08415 | 33995 ft | 478 kts | 18° |
| 2026-05-07 05:11 | 46.06759 | -0.04435 | 33995 ft | 478 kts | 18° |
| 2026-05-07 05:11 | 46.12752 | -0.00472 | 33999 ft | 477 kts | 18° |
| 2026-05-07 05:12 | 46.18747 | 0.03501 | 34009 ft | 477 kts | 18° |
| 2026-05-07 05:12 | 46.24775 | 0.07505 | 34020 ft | 478 kts | 18° |
| 2026-05-07 05:13 | 46.30798 | 0.11516 | 34020 ft | 477 kts | 18° |
| 2026-05-07 05:13 | 46.36792 | 0.15518 | 34020 ft | 477 kts | 18° |
| 2026-05-07 05:14 | 46.42795 | 0.19535 | 34020 ft | 477 kts | 18° |
| 2026-05-07 05:14 | 46.48801 | 0.23564 | 34020 ft | 477 kts | 18° |
| 2026-05-07 05:15 | 46.54790 | 0.27562 | 34019 ft | 475 kts | 16° |
| 2026-05-07 05:15 | 46.60990 | 0.30488 | 34021 ft | 464 kts | 5° |
| 2026-05-07 05:16 | 46.67235 | 0.32424 | 34020 ft | 464 kts | 5° |
| 2026-05-07 05:16 | 46.73539 | 0.34454 | 34020 ft | 465 kts | 5° |
| 2026-05-07 05:17 | 46.79835 | 0.36434 | 34020 ft | 464 kts | 4° |
| 2026-05-07 05:17 | 46.86126 | 0.38397 | 34020 ft | 464 kts | 4° |
| 2026-05-07 05:18 | 46.92423 | 0.40357 | 34020 ft | 464 kts | 4° |
| 2026-05-07 05:18 | 46.98682 | 0.42303 | 34020 ft | 464 kts | 3° |
| 2026-05-07 05:19 | 47.04956 | 0.44135 | 34019 ft | 458 kts | 358° |
| 2026-05-07 05:19 | 47.11154 | 0.44398 | 34021 ft | 439 kts | 343° |
| 2026-05-07 05:20 | 47.17114 | 0.42947 | 34020 ft | 435 kts | 341° |
| 2026-05-07 05:20 | 47.23081 | 0.41554 | 34020 ft | 436 kts | 341° |
| 2026-05-07 05:21 | 47.32044 | 0.39401 | 34020 ft | 436 kts | 341° |
| 2026-05-07 05:22 | 47.37987 | 0.37957 | 34020 ft | 435 kts | 341° |
| 2026-05-07 05:22 | 47.43949 | 0.36500 | 34025 ft | 435 kts | 341° |
| 2026-05-07 05:23 | 47.50941 | 0.34780 | 34033 ft | 435 kts | 341° |
| 2026-05-07 05:23 | 47.85012 | 0.27185 | 34046 ft | 460 kts | 1° |
| 2026-05-07 05:23 | 47.88095 | 0.28826 | 34048 ft | 484 kts | 22° |
| 2026-05-07 05:24 | 47.90768 | 0.31976 | 34052 ft | 501 kts | 41° |
| 2026-05-07 05:24 | 47.95248 | 0.39995 | 34045 ft | 502 kts | 41° |
| 2026-05-07 05:25 | 48.00354 | 0.46860 | 34047 ft | 494 kts | 32° |
| 2026-05-07 05:25 | 48.05734 | 0.53097 | 34046 ft | 492 kts | 30° |
| 2026-05-07 05:26 | 48.11235 | 0.59201 | 34047 ft | 491 kts | 28° |
| 2026-05-07 05:26 | 48.34134 | 0.84070 | 34042 ft | 492 kts | 30° |
| 2026-05-07 05:26 | 48.36704 | 0.87580 | 34024 ft | 504 kts | 45° |
| 2026-05-07 05:27 | 48.38560 | 0.92043 | 34030 ft | 513 kts | 62° |
| 2026-05-07 05:27 | 48.41260 | 1.01971 | 34019 ft | 513 kts | 63° |
| 2026-05-07 05:28 | 48.44302 | 1.11568 | 34020 ft | 506 kts | 60° |
| 2026-05-07 05:28 | 48.45855 | 1.16260 | 33888 ft | 500 kts | 60° |
| 2026-05-07 05:28 | 48.47408 | 1.20944 | 33053 ft | 498 kts | 60° |
| 2026-05-07 05:28 | 48.48954 | 1.25570 | 32163 ft | 498 kts | 60° |
| 2026-05-07 05:29 | 48.50518 | 1.30219 | 31230 ft | 497 kts | 59° |
| 2026-05-07 05:29 | 48.52063 | 1.34793 | 30285 ft | 496 kts | 59° |
| 2026-05-07 05:29 | 48.53635 | 1.39418 | 29300 ft | 495 kts | 59° |
| 2026-05-07 05:29 | 48.55178 | 1.43938 | 28586 ft | 487 kts | 59° |
| 2026-05-07 05:30 | 48.56722 | 1.48468 | 27863 ft | 480 kts | 59° |
| 2026-05-07 05:30 | 48.58224 | 1.52902 | 27227 ft | 472 kts | 59° |
| 2026-05-07 05:30 | 48.59674 | 1.57294 | 26956 ft | 471 kts | 60° |
| 2026-05-07 05:30 | 48.61122 | 1.61733 | 26712 ft | 474 kts | 60° |
| 2026-05-07 05:31 | 48.62582 | 1.66198 | 26460 ft | 474 kts | 61° |
| 2026-05-07 05:31 | 48.64041 | 1.70655 | 26202 ft | 471 kts | 61° |
| 2026-05-07 05:31 | 48.65472 | 1.75034 | 25535 ft | 464 kts | 61° |
| 2026-05-07 05:31 | 48.66889 | 1.79381 | 24771 ft | 458 kts | 61° |
| 2026-05-07 05:32 | 48.68285 | 1.83663 | 23982 ft | 453 kts | 61° |
| 2026-05-07 05:32 | 48.69644 | 1.87840 | 23225 ft | 447 kts | 61° |
| 2026-05-07 05:32 | 48.71008 | 1.92035 | 22469 ft | 441 kts | 61° |
| 2026-05-07 05:32 | 48.72355 | 1.96186 | 21716 ft | 435 kts | 61° |
| 2026-05-07 05:33 | 48.73677 | 2.00267 | 20971 ft | 430 kts | 61° |
| 2026-05-07 05:33 | 48.74981 | 2.04299 | 20230 ft | 424 kts | 61° |
| 2026-05-07 05:33 | 48.76263 | 2.08270 | 19497 ft | 419 kts | 61° |
| 2026-05-07 05:33 | 48.77528 | 2.12191 | 18769 ft | 413 kts | 61° |
| 2026-05-07 05:34 | 48.78779 | 2.16074 | 18044 ft | 408 kts | 61° |
| 2026-05-07 05:34 | 48.80013 | 2.19912 | 17322 ft | 403 kts | 61° |
| 2026-05-07 05:34 | 48.81227 | 2.23694 | 16608 ft | 398 kts | 61° |
| 2026-05-07 05:34 | 48.82424 | 2.27427 | 15901 ft | 393 kts | 61° |
| 2026-05-07 05:35 | 48.83599 | 2.31097 | 15201 ft | 388 kts | 61° |
| 2026-05-07 05:35 | 48.84770 | 2.34758 | 14500 ft | 384 kts | 61° |
| 2026-05-07 05:35 | 48.85931 | 2.38394 | 13799 ft | 379 kts | 61° |
| 2026-05-07 05:35 | 48.87069 | 2.41964 | 13111 ft | 374 kts | 61° |
| 2026-05-07 05:36 | 48.88192 | 2.45494 | 12428 ft | 370 kts | 61° |
| 2026-05-07 05:36 | 48.89292 | 2.48953 | 11746 ft | 365 kts | 61° |
| 2026-05-07 05:36 | 48.90380 | 2.52384 | 11343 ft | 352 kts | 61° |
| 2026-05-07 05:36 | 48.91419 | 2.55666 | 11014 ft | 339 kts | 61° |
| 2026-05-07 05:37 | 48.92418 | 2.58821 | 10763 ft | 325 kts | 61° |
| 2026-05-07 05:37 | 48.93384 | 2.61879 | 10488 ft | 315 kts | 61° |
| 2026-05-07 05:37 | 48.94305 | 2.64792 | 10302 ft | 302 kts | 60° |
| 2026-05-07 05:37 | 48.95202 | 2.67635 | 9977 ft | 296 kts | 61° |
| 2026-05-07 05:38 | 48.96090 | 2.70448 | 9608 ft | 292 kts | 61° |
| 2026-05-07 05:38 | 48.96957 | 2.73202 | 9221 ft | 289 kts | 61° |
| 2026-05-07 05:38 | 48.97818 | 2.75939 | 8831 ft | 286 kts | 61° |
| 2026-05-07 05:38 | 48.98672 | 2.78657 | 8440 ft | 284 kts | 61° |
| 2026-05-07 05:39 | 48.99514 | 2.81342 | 8051 ft | 281 kts | 62° |
| 2026-05-07 05:39 | 49.00359 | 2.84034 | 7597 ft | 282 kts | 62° |
| 2026-05-07 05:39 | 49.01177 | 2.86652 | 7412 ft | 271 kts | 62° |
| 2026-05-07 05:39 | 49.01979 | 2.89218 | 7148 ft | 265 kts | 61° |
| 2026-05-07 05:40 | 49.02764 | 2.91729 | 6870 ft | 260 kts | 62° |
| 2026-05-07 05:40 | 49.03532 | 2.94157 | 6581 ft | 245 kts | 57° |
| 2026-05-07 05:40 | 49.04590 | 2.96002 | 6363 ft | 222 kts | 26° |
| 2026-05-07 05:40 | 49.05956 | 2.96689 | 6190 ft | 199 kts | 1° |
| 2026-05-07 05:41 | 49.07257 | 2.96607 | 6016 ft | 178 kts | 339° |
| 2026-05-07 05:41 | 49.08194 | 2.95521 | 5534 ft | 174 kts | 295° |
| 2026-05-07 05:41 | 49.08452 | 2.93721 | 5126 ft | 173 kts | 272° |
| 2026-05-07 05:41 | 49.08272 | 2.91965 | 5096 ft | 170 kts | 259° |
| 2026-05-07 05:42 | 49.07996 | 2.90206 | 5072 ft | 170 kts | 260° |
| 2026-05-07 05:42 | 49.07724 | 2.88441 | 5073 ft | 171 kts | 259° |
| 2026-05-07 05:42 | 49.07450 | 2.86667 | 5073 ft | 171 kts | 259° |
| 2026-05-07 05:42 | 49.07176 | 2.84900 | 5073 ft | 171 kts | 259° |
| 2026-05-07 05:43 | 49.06905 | 2.83152 | 4924 ft | 168 kts | 259° |
| 2026-05-07 05:43 | 49.06634 | 2.81404 | 4610 ft | 170 kts | 259° |
| 2026-05-07 05:43 | 49.06365 | 2.79676 | 4339 ft | 170 kts | 259° |
| 2026-05-07 05:43 | 49.06093 | 2.77930 | 4112 ft | 164 kts | 259° |
| 2026-05-07 05:44 | 49.05841 | 2.76314 | 3928 ft | 152 kts | 259° |
| 2026-05-07 05:44 | 49.05599 | 2.74758 | 3615 ft | 150 kts | 259° |
| 2026-05-07 05:44 | 49.05360 | 2.73224 | 3289 ft | 149 kts | 259° |
| 2026-05-07 05:44 | 49.05023 | 2.71732 | 2950 ft | 151 kts | 245° |
| 2026-05-07 05:45 | 49.04425 | 2.70411 | 2619 ft | 151 kts | 236° |
| 2026-05-07 05:45 | 49.03818 | 2.69143 | 2366 ft | 144 kts | 237° |
| 2026-05-07 05:45 | 49.03247 | 2.67938 | 2031 ft | 142 kts | 237° |
| 2026-05-07 05:45 | 49.02772 | 2.66650 | 1737 ft | 134 kts | 257° |
| 2026-05-07 05:46 | 49.02705 | 2.65266 | 1599 ft | 131 kts | 274° |
| 2026-05-07 05:46 | 49.02783 | 2.63936 | 1434 ft | 124 kts | 278° |
| 2026-05-07 05:46 | 49.02837 | 2.62604 | 1250 ft | 126 kts | 273° |
| 2026-05-07 05:46 | 49.02854 | 2.61273 | 1077 ft | 125 kts | 273° |
| 2026-05-07 05:47 | 49.02844 | 2.59937 | 899 ft | 129 kts | 268° |
| 2026-05-07 05:47 | 49.02786 | 2.58571 | 734 ft | 128 kts | 267° |
| 2026-05-07 05:47 | 49.02720 | 2.57223 | 568 ft | 128 kts | 266° |
| 2026-05-07 05:47 | 49.02649 | 2.55865 | 406 ft | 127 kts | 266° |
| 2026-05-07 05:48 | 49.02587 | 2.54692 | 379 ft | 83 kts | 266° |
| 2026-05-07 05:48 | 49.02537 | 2.54107 | 380 ft | 32 kts | 234° |
| 2026-05-07 05:48 | 49.02430 | 2.53886 | 380 ft | 20 kts | 231° |
| 2026-05-07 05:48 | 49.02344 | 2.53765 | 379 ft | 14 kts | 219° |
| 2026-05-07 05:49 | 49.02267 | 2.53624 | 376 ft | 18 kts | 217° |
| 2026-05-07 05:49 | 49.02142 | 2.53552 | 373 ft | 19 kts | 194° |
| 2026-05-07 05:49 | 49.01993 | 2.53552 | 370 ft | 22 kts | 176° |
| 2026-05-07 05:49 | 49.01840 | 2.53571 | 364 ft | 22 kts | 175° |
| 2026-05-07 05:50 | 49.01673 | 2.53592 | 361 ft | 26 kts | 176° |
| 2026-05-07 05:50 | 49.01552 | 2.53650 | 358 ft | 13 kts | 99° |
| 2026-05-07 05:50 | 49.01557 | 2.53781 | 358 ft | 11 kts | 95° |
| 2026-05-07 05:50 | 49.01564 | 2.53852 | 359 ft | 0 kts | 56° |